createdAt,value
2022-08-24T00:02:53.008Z,8.60
2022-08-24T00:04:47.102Z,8.80
2022-08-24T00:09:57.134Z,9.90
2022-08-24T00:11:26.114Z,10.20
2022-08-24T00:13:16.814Z,9.70
2022-08-24T00:17:08.656Z,9.40
2022-08-24T00:22:23.743Z,11.80
2022-08-24T00:25:19.485Z,13.80
2022-08-24T00:28:25.212Z,10.60
2022-08-24T00:30:11.819Z,10.90
2022-08-24T00:35:54.489Z,9.80
2022-08-24T00:46:26.771Z,9.80
2022-08-24T00:52:05.209Z,11.70
2022-08-24T00:58:03.746Z,11.60
2022-08-24T01:00:02.595Z,12.00
2022-08-24T01:01:37.050Z,11.10
2022-08-24T01:03:25.552Z,12.40
2022-08-24T01:08:15.362Z,11.10
2022-08-24T01:11:14.153Z,9.40
2022-08-24T01:15:07.818Z,10.50
2022-08-24T01:20:02.476Z,13.20
2022-08-24T01:21:05.293Z,12.50
2022-08-24T01:22:04.027Z,12.20
2022-08-24T01:25:50.629Z,11.00
2022-08-24T01:35:52.240Z,11.30
2022-08-24T01:39:46.302Z,10.70
2022-08-24T01:42:23.224Z,14.60
2022-08-24T01:49:17.321Z,13.20
2022-08-24T01:53:24.901Z,11.40
2022-08-24T02:01:49.661Z,12.90
2022-08-24T02:04:22.165Z,14.10
2022-08-24T02:06:12.519Z,11.50
2022-08-24T02:08:02.705Z,13.30
2022-08-24T02:11:31.673Z,13.00
2022-08-24T02:15:36.549Z,19.80
2022-08-24T02:17:09.605Z,12.30
2022-08-24T02:19:06.285Z,13.00
2022-08-24T02:23:12.823Z,13.80
2022-08-24T02:27:53.185Z,14.90
2022-08-24T02:30:12.206Z,15.20
2022-08-24T02:32:39.377Z,12.90
2022-08-24T02:34:22.796Z,15.60
2022-08-24T02:38:54.532Z,17.20
2022-08-24T02:42:23.876Z,14.90
2022-08-24T02:50:06.460Z,17.40
2022-08-24T02:55:05.988Z,17.50
2022-08-24T03:01:43.004Z,16.30
2022-08-24T03:03:10.354Z,16.00
2022-08-24T03:08:46.445Z,19.00
2022-08-24T03:12:02.672Z,20.00
2022-08-24T03:19:12.173Z,19.20
2022-08-24T03:22:20.515Z,18.90
2022-08-24T03:25:51.653Z,19.20
2022-08-24T03:27:32.882Z,20.50
2022-08-24T03:32:06.855Z,21.30
2022-08-24T03:35:11.944Z,21.30
2022-08-24T03:40:32.579Z,22.10
2022-08-24T03:44:52.761Z,21.60
2022-08-24T03:46:37.331Z,21.80
2022-08-24T03:48:43.549Z,21.40
2022-08-24T03:50:36.992Z,20.10
2022-08-24T03:52:19.619Z,22.00
2022-08-24T03:54:03.489Z,21.50
2022-08-24T03:56:21.333Z,21.80
2022-08-24T04:00:38.985Z,23.00
2022-08-24T04:07:21.091Z,23.40
2022-08-24T04:10:50.614Z,23.90
2022-08-24T04:12:44.854Z,24.60
2022-08-24T04:18:41.229Z,24.40
2022-08-24T04:24:04.888Z,24.20
2022-08-24T04:33:20.618Z,23.60
2022-08-24T04:39:56.997Z,24.10
2022-08-24T04:42:15.357Z,23.60
2022-08-24T04:44:32.728Z,26.20
2022-08-24T04:46:21.834Z,26.10
2022-08-24T04:47:51.517Z,25.60
2022-08-24T04:49:42.217Z,25.10
2022-08-24T04:51:14.066Z,25.30
2022-08-24T04:53:29.967Z,27.70
2022-08-24T04:55:49.084Z,25.50
2022-08-24T04:57:39.618Z,24.00
2022-08-24T04:59:29.438Z,26.20
2022-08-24T05:01:17.686Z,25.00
2022-08-24T05:06:04.907Z,23.70
2022-08-24T05:07:35.810Z,25.20
2022-08-24T05:18:19.247Z,24.90
2022-08-24T05:24:44.400Z,23.10
2022-08-24T05:29:26.588Z,23.00
2022-08-24T05:33:11.708Z,23.90
2022-08-24T05:36:01.193Z,20.70
2022-08-24T05:38:45.827Z,21.00
2022-08-24T05:41:17.237Z,23.50
2022-08-24T05:43:07.718Z,22.10
2022-08-24T05:44:57.635Z,22.80
2022-08-24T05:47:25.754Z,22.20
2022-08-24T05:55:29.031Z,20.50
2022-08-24T05:57:28.916Z,27.10
2022-08-24T06:01:25.441Z,22.80
2022-08-24T06:06:36.117Z,25.10
2022-08-24T06:08:41.663Z,24.30
2022-08-24T06:10:33.231Z,25.60
2022-08-24T06:12:07.436Z,28.90
2022-08-24T06:14:29.765Z,23.80
2022-08-24T06:17:45.612Z,24.90
2022-08-24T06:19:45.328Z,24.50
2022-08-24T06:25:32.211Z,23.40
2022-08-24T06:28:06.457Z,27.40
2022-08-24T06:37:05.005Z,23.50
2022-08-24T06:41:20.773Z,25.80
2022-08-24T06:45:48.826Z,23.70
2022-08-24T06:57:20.544Z,26.20
2022-08-24T06:58:49.567Z,26.20
2022-08-24T07:09:29.255Z,24.70
2022-08-24T07:10:57.886Z,21.70
2022-08-24T07:12:30.443Z,22.20
2022-08-24T07:14:57.036Z,22.30
2022-08-24T07:18:07.361Z,23.70
2022-08-24T07:22:23.275Z,23.00
2022-08-24T07:23:53.145Z,19.50
2022-08-24T07:27:22.162Z,20.10
2022-08-24T07:35:02.725Z,17.70
2022-08-24T07:37:40.714Z,16.70
2022-08-24T07:39:00.749Z,17.10
2022-08-24T07:41:33.724Z,17.00
2022-08-24T07:46:36.227Z,15.60
2022-08-24T07:48:05.414Z,16.70
2022-08-24T07:49:39.563Z,18.30
2022-08-24T07:51:04.067Z,17.00
2022-08-24T07:53:43.768Z,18.30
2022-08-24T07:56:04.487Z,14.40
2022-08-24T07:58:59.916Z,13.90
2022-08-24T08:03:24.287Z,11.50
2022-08-24T08:05:22.093Z,12.20
2022-08-24T08:06:50.999Z,12.90
2022-08-24T08:08:20.214Z,12.10
2022-08-24T08:10:20.196Z,9.00
2022-08-24T08:14:42.869Z,10.50
2022-08-24T08:16:43.583Z,13.10
2022-08-24T08:19:40.319Z,9.50
2022-08-24T08:22:58.910Z,7.50
2022-08-24T08:24:27.854Z,7.10
2022-08-24T08:25:56.735Z,14.10
2022-08-24T08:27:26.623Z,10.40
2022-08-24T08:28:56.520Z,10.10
2022-08-24T08:31:43.233Z,4.20
2022-08-24T08:37:32.756Z,7.60
2022-08-24T08:43:57.045Z,3.80
2022-08-24T08:45:55.801Z,4.20
2022-08-24T08:48:06.912Z,7.40
2022-08-24T08:49:35.797Z,3.20
2022-08-24T08:51:34.586Z,3.90
2022-08-24T08:53:03.779Z,5.50
2022-08-24T08:57:30.846Z,3.10
2022-08-24T08:58:59.668Z,4.30
2022-08-24T09:01:17.345Z,4.10
2022-08-24T09:03:46.059Z,3.20
2022-08-24T09:05:14.952Z,2.50
2022-08-24T09:10:06.505Z,3.80
2022-08-24T09:12:04.450Z,2.40
2022-08-24T09:15:01.109Z,4.80
2022-08-24T09:18:55.813Z,4.00
2022-08-24T09:23:20.487Z,3.20
2022-08-24T09:24:50.395Z,2.30
2022-08-24T09:27:50.187Z,3.00
2022-08-24T09:29:18.556Z,3.20
2022-08-24T09:32:16.358Z,3.60
2022-08-24T09:34:32.463Z,3.40
2022-08-24T09:36:01.476Z,3.50
2022-08-24T09:38:28.334Z,2.00
2022-08-24T09:39:57.282Z,4.00
2022-08-24T09:42:53.912Z,1.90
2022-08-24T09:45:41.899Z,2.20
2022-08-24T09:50:20.230Z,3.10
2022-08-24T09:53:45.038Z,4.10
2022-08-24T09:56:02.680Z,11.70
2022-08-24T09:58:29.596Z,4.50
2022-08-24T10:01:55.443Z,4.90
2022-08-24T10:05:03.391Z,8.60
2022-08-24T10:07:53.158Z,5.80
2022-08-24T10:09:10.456Z,2.50
2022-08-24T10:11:39.193Z,2.70
2022-08-24T10:14:16.915Z,3.60
2022-08-24T10:16:06.634Z,4.80
2022-08-24T10:19:04.399Z,1.80
2022-08-24T10:20:33.219Z,3.20
2022-08-24T10:22:02.115Z,5.40
2022-08-24T10:23:32.485Z,3.20
2022-08-24T10:25:12.217Z,1.80
2022-08-24T10:29:18.041Z,2.00
2022-08-24T10:30:47.942Z,2.00
2022-08-24T10:36:30.397Z,3.60
2022-08-24T10:42:52.043Z,4.40
2022-08-24T10:44:50.400Z,4.20
2022-08-24T10:46:20.323Z,5.20
2022-08-24T10:49:36.176Z,3.00
2022-08-24T10:54:28.777Z,1.10
2022-08-24T10:59:57.321Z,4.80
2022-08-24T11:02:28.124Z,1.50
2022-08-24T11:05:24.038Z,2.10
2022-08-24T11:08:20.463Z,4.00
2022-08-24T11:10:17.918Z,3.90
2022-08-24T11:12:15.748Z,3.30
2022-08-24T11:13:48.286Z,2.40
2022-08-24T11:16:23.289Z,1.10
2022-08-24T11:17:54.370Z,2.00
2022-08-24T11:19:22.047Z,3.00
2022-08-24T11:21:12.676Z,0.90
2022-08-24T11:23:08.796Z,2.40
2022-08-24T11:24:41.149Z,3.20
2022-08-24T11:26:29.963Z,1.20
2022-08-24T11:29:05.356Z,5.20
2022-08-24T11:30:34.085Z,3.80
2022-08-24T11:33:20.657Z,4.20
2022-08-24T11:35:40.312Z,3.40
2022-08-24T11:37:10.294Z,1.90
2022-08-24T11:40:00.388Z,3.60
2022-08-24T11:41:31.783Z,2.30
2022-08-24T11:43:22.410Z,3.90
2022-08-24T11:45:20.305Z,2.10
2022-08-24T11:47:21.587Z,2.50
2022-08-24T11:49:41.313Z,2.50
2022-08-24T11:51:37.223Z,1.00
2022-08-24T12:00:35.042Z,1.90
2022-08-24T12:02:03.707Z,4.90
2022-08-24T12:05:45.544Z,4.50
2022-08-24T12:09:02.265Z,2.30
2022-08-24T12:12:00.791Z,1.80
2022-08-24T12:16:15.617Z,2.30
2022-08-24T12:17:44.599Z,2.70
2022-08-24T12:21:12.995Z,1.60
2022-08-24T12:24:22.683Z,3.00
2022-08-24T12:27:20.293Z,2.80
2022-08-24T12:28:54.295Z,1.70
2022-08-24T12:34:09.676Z,1.90
2022-08-24T12:39:34.796Z,1.50
2022-08-24T12:41:24.749Z,1.60
2022-08-24T12:44:48.246Z,3.30
2022-08-24T12:46:35.169Z,2.80
2022-08-24T12:50:08.982Z,3.80
2022-08-24T12:56:09.600Z,4.90
2022-08-24T12:58:40.646Z,2.10
2022-08-24T13:06:14.645Z,3.30
2022-08-24T13:09:15.293Z,5.80
2022-08-24T13:12:15.031Z,2.40
2022-08-24T13:17:42.214Z,4.20
2022-08-24T13:25:56.854Z,3.40
2022-08-24T13:28:25.725Z,2.80
2022-08-24T13:29:53.720Z,1.80
2022-08-24T13:32:11.781Z,1.20
2022-08-24T13:34:11.281Z,2.10
2022-08-24T13:36:37.670Z,2.40
2022-08-24T13:48:04.894Z,4.10
2022-08-24T13:50:33.608Z,3.00
2022-08-24T13:55:18.395Z,2.10
2022-08-24T13:59:15.114Z,2.10
2022-08-24T14:00:44.029Z,6.90
2022-08-24T14:03:13.007Z,1.90
2022-08-24T14:06:37.874Z,3.80
2022-08-24T14:11:22.532Z,1.20
2022-08-24T14:14:18.279Z,3.60
2022-08-24T14:16:37.120Z,2.00
2022-08-24T14:19:33.409Z,5.70
2022-08-24T14:22:21.453Z,2.50
2022-08-24T14:23:54.765Z,3.40
2022-08-24T14:25:44.579Z,3.80
2022-08-24T14:27:42.441Z,1.70
2022-08-24T14:29:11.044Z,1.00
2022-08-24T14:30:40.502Z,4.10
2022-08-24T14:32:12.720Z,2.50
2022-08-24T14:34:16.580Z,3.10
2022-08-24T14:36:01.121Z,4.70
2022-08-24T14:38:18.764Z,4.00
2022-08-24T14:41:14.531Z,2.00
2022-08-24T14:46:55.984Z,7.40
2022-08-24T14:50:13.624Z,4.10
2022-08-24T14:52:12.734Z,1.40
2022-08-24T15:01:20.408Z,3.90
2022-08-24T15:03:08.827Z,1.60
2022-08-24T15:08:48.655Z,7.30
2022-08-24T15:10:48.542Z,5.60
2022-08-24T15:12:16.112Z,7.20
2022-08-24T15:14:22.413Z,2.50
2022-08-24T15:16:21.555Z,6.40
2022-08-24T15:20:11.984Z,2.40
2022-08-24T15:24:08.015Z,2.20
2022-08-24T15:26:04.818Z,2.30
2022-08-24T15:28:35.899Z,2.30
2022-08-24T15:32:22.706Z,5.30
2022-08-24T15:34:43.096Z,1.30
2022-08-24T15:36:13.201Z,1.60
2022-08-24T15:38:44.139Z,2.80
2022-08-24T15:40:15.020Z,2.40
2022-08-24T15:42:15.219Z,1.50
2022-08-24T15:43:45.961Z,4.30
2022-08-24T15:45:14.118Z,3.10
2022-08-24T15:48:34.481Z,2.00
2022-08-24T15:51:37.503Z,4.80
2022-08-24T15:53:25.105Z,4.00
2022-08-24T15:57:32.419Z,2.10
2022-08-24T16:00:09.271Z,8.70
2022-08-24T16:04:21.171Z,3.50
2022-08-24T16:08:47.961Z,3.30
2022-08-24T16:10:53.824Z,2.90
2022-08-24T16:16:05.883Z,5.50
2022-08-24T16:18:53.953Z,3.00
2022-08-24T16:23:03.443Z,3.50
2022-08-24T16:25:24.502Z,11.40
2022-08-24T16:27:17.003Z,11.50
2022-08-24T16:29:36.232Z,3.50
2022-08-24T16:31:14.357Z,3.40
2022-08-24T16:32:45.551Z,4.90
2022-08-24T16:35:05.125Z,4.40
2022-08-24T16:38:23.921Z,21.10
2022-08-24T16:42:06.025Z,8.30
2022-08-24T16:45:23.791Z,5.90
2022-08-24T16:47:14.498Z,7.90
2022-08-24T16:49:31.837Z,5.70
2022-08-24T16:52:21.488Z,8.50
2022-08-24T16:54:19.780Z,14.80
2022-08-24T16:55:49.653Z,9.70
2022-08-24T16:58:23.600Z,8.50
2022-08-24T17:06:46.814Z,5.20
2022-08-24T17:12:44.241Z,3.10
2022-08-24T17:15:33.057Z,2.10
2022-08-24T17:17:02.983Z,3.10
2022-08-24T17:18:33.771Z,5.10
2022-08-24T17:21:53.167Z,2.60
2022-08-24T17:25:45.966Z,3.10
2022-08-24T17:28:49.251Z,8.20
2022-08-24T17:31:47.183Z,4.80
2022-08-24T17:33:47.099Z,3.60
2022-08-24T17:36:05.767Z,3.50
2022-08-24T17:37:35.631Z,6.50
2022-08-24T17:39:03.580Z,3.60
2022-08-24T17:44:33.256Z,4.10
2022-08-24T17:47:03.019Z,4.90
2022-08-24T17:49:49.608Z,4.10
2022-08-24T17:51:19.504Z,4.20
2022-08-24T17:52:50.483Z,4.80
2022-08-24T17:56:46.865Z,2.40
2022-08-24T17:58:43.081Z,2.20
2022-08-24T18:01:13.076Z,4.60
2022-08-24T18:11:33.269Z,2.70
2022-08-24T18:13:04.577Z,4.20
2022-08-24T18:16:42.972Z,2.70
2022-08-24T18:18:41.799Z,2.80
2022-08-24T18:20:10.725Z,3.70
2022-08-24T18:21:42.684Z,4.60
2022-08-24T18:24:02.375Z,11.00
2022-08-24T18:27:10.041Z,8.70
2022-08-24T18:29:03.063Z,4.50
2022-08-24T18:30:57.936Z,13.00
2022-08-24T18:35:43.850Z,8.50
2022-08-24T18:37:13.722Z,14.60
2022-08-24T18:40:23.390Z,12.50
2022-08-24T18:46:29.654Z,9.90
2022-08-24T18:50:24.134Z,11.00
2022-08-24T18:55:10.744Z,11.40
2022-08-24T19:01:57.023Z,12.40
2022-08-24T19:05:11.851Z,11.60
2022-08-24T19:09:10.115Z,18.70
2022-08-24T19:10:39.048Z,17.40
2022-08-24T19:12:08.892Z,20.80
2022-08-24T19:15:40.119Z,14.10
2022-08-24T19:18:56.673Z,8.70
2022-08-24T19:25:33.299Z,9.60
2022-08-24T19:28:28.172Z,10.60
2022-08-24T19:32:13.896Z,9.30
2022-08-24T19:36:22.852Z,6.10
2022-08-24T19:39:04.307Z,6.10
2022-08-24T19:40:56.614Z,3.90
2022-08-24T19:43:47.360Z,7.30
2022-08-24T19:45:20.077Z,3.70
2022-08-24T19:47:08.330Z,2.60
2022-08-24T19:52:06.435Z,3.80
2022-08-24T19:53:38.123Z,3.70
2022-08-24T20:00:48.209Z,5.20
2022-08-24T20:02:15.896Z,2.50
2022-08-24T20:09:27.075Z,4.60
2022-08-24T20:14:37.677Z,6.10
2022-08-24T20:16:07.313Z,3.80
2022-08-24T20:17:36.755Z,3.60
2022-08-24T20:21:30.164Z,3.40
2022-08-24T20:23:35.845Z,4.90
2022-08-24T20:26:36.371Z,3.40
2022-08-24T20:29:28.778Z,4.80
2022-08-24T20:34:51.134Z,4.90
2022-08-24T20:40:15.353Z,3.50
2022-08-24T20:41:47.147Z,3.90
2022-08-24T20:43:14.601Z,3.60
2022-08-24T20:47:15.410Z,7.60
2022-08-24T20:52:22.623Z,5.80
2022-08-24T20:54:23.573Z,6.60
2022-08-24T20:59:45.217Z,5.40
2022-08-24T21:01:45.252Z,2.50
2022-08-24T21:13:19.245Z,4.50
2022-08-24T21:17:11.257Z,6.30
2022-08-24T21:19:35.384Z,5.50
2022-08-24T21:21:04.781Z,8.90
2022-08-24T21:31:02.505Z,5.00
2022-08-24T21:37:44.237Z,3.50
2022-08-24T21:43:34.711Z,7.20
2022-08-24T21:48:07.027Z,4.00
2022-08-24T21:51:13.094Z,5.30
2022-08-24T21:52:51.272Z,4.70
2022-08-24T21:54:23.805Z,5.90
2022-08-24T21:56:17.490Z,4.70
2022-08-24T21:57:52.302Z,5.30
2022-08-24T22:00:29.708Z,4.10
2022-08-24T22:05:26.177Z,4.60
2022-08-24T22:07:26.633Z,6.00
2022-08-24T22:10:36.635Z,5.80
2022-08-24T22:12:38.789Z,6.60
2022-08-24T22:14:11.769Z,3.90
2022-08-24T22:18:21.655Z,4.20
2022-08-24T22:19:55.233Z,4.30
2022-08-24T22:22:24.756Z,4.10
2022-08-24T22:25:25.067Z,7.40
2022-08-24T22:30:25.999Z,3.50
2022-08-24T22:32:24.433Z,3.50
2022-08-24T22:34:42.764Z,5.00
2022-08-24T22:36:32.427Z,7.70
2022-08-24T22:39:49.538Z,3.00
2022-08-24T22:48:54.652Z,2.40
2022-08-24T22:50:23.575Z,7.40
2022-08-24T22:54:29.978Z,5.60
2022-08-24T22:57:19.954Z,6.40
2022-08-24T22:59:19.638Z,5.30
2022-08-24T23:02:08.410Z,2.20
2022-08-24T23:09:03.627Z,5.20
2022-08-24T23:14:17.321Z,2.30
2022-08-24T23:15:46.342Z,5.90
2022-08-24T23:19:12.049Z,4.60
2022-08-24T23:22:07.066Z,3.80
2022-08-24T23:25:54.132Z,2.50
2022-08-24T23:27:24.456Z,4.60
2022-08-24T23:28:55.944Z,3.20
2022-08-24T23:30:54.958Z,4.40
2022-08-24T23:34:26.236Z,4.30
2022-08-24T23:37:57.810Z,6.20
2022-08-24T23:52:30.660Z,3.30
2022-08-24T23:55:41.726Z,5.80
2022-08-24T23:57:08.900Z,4.90
